Terminal Aerodrome Forecast
Issued by NWS Jacksonville, FL

Current Version | Previous Version | Text Only | Print | Product List | Glossary On
Versions: 1 2 3 4 5 6 7 8 9 10 11 12 13 14 15 16 17 18 19 20 21 22
707
FTUS42 KJAX 071725
TAFJAX
TAF
KJAX 071725Z 0718/0818 VRB05KT P6SM FEW020 SCT250
     FM080200 00000KT 6SM BR SCT020 SCT250
     FM080600 00000KT 2SM BR SCT005 BKN020
     FM081300 31006KT 5SM BR SCT005 BKN020=

USA.gov is the U.S. government's official web portal to all federal, state and local government web resources and services.